Decoded Metar for KCTB (CUTBANK in MT, USA) (IATA:CTB) | Meteo·Mobile Aviation Weather
aviador You're here:

KCTB Decoded Metar

CUTBANK in MT, USA
Report Time2018-09-22 13:56:00
UTC Time2018-09-22 14:35:39
Flight Rules lifr LIFR
Wind350° at 04 kt
W.Decomp.*RWY 31: 3.7 kt HW 1.6 kt RCW
RWY 05: 0.9 kt HW 3.9 kt LCW
W.Rank350° ranks 8
Current wind is below 350° avg. (11.5)
Visibility402 m
Phenomena:Fog
Clouds:N/A
Ceiling100 ft
Temp03°C (ISA -4)
Dew Point03°C (100% RH)
AAT0.1°C
QNH1013 hPa
Density Alt3,448 ft
Elevation3,855 ft
Report Wrong Elevation
Raw Report
KCTB 221356Z AUTO 35004KT M1/4SM FG VV001 03/03 A2990 RMK AO2
SLP126 T00330033=

Extra information for KCTB:More info

Metar Taf Metar & Taf Last 4 Metars F.Rules Stats Wind Profile Meteogram Temp Stats Airport Information Weather charts Add Link Nearby VenuesMetar ALERT Operation Metar Decoded Social comments

AIRNAV info for KCTB